createdAt,value
2022-09-02T00:01:24.878Z,15.10
2022-09-02T00:03:52.971Z,15.00
2022-09-02T00:06:19.861Z,15.00
2022-09-02T00:08:47.120Z,15.00
2022-09-02T00:11:18.893Z,14.90
2022-09-02T00:13:46.364Z,15.00
2022-09-02T00:16:14.139Z,15.00
2022-09-02T00:18:44.933Z,14.90
2022-09-02T00:21:14.364Z,14.90
2022-09-02T00:23:42.865Z,14.80
2022-09-02T00:26:09.992Z,14.80
2022-09-02T00:28:37.105Z,14.80
2022-09-02T00:31:04.218Z,14.70
2022-09-02T00:33:31.779Z,14.60
2022-09-02T00:36:01.028Z,14.70
2022-09-02T00:38:29.108Z,14.60
2022-09-02T00:40:55.996Z,14.60
2022-09-02T00:43:43.961Z,14.60
2022-09-02T00:46:12.288Z,14.60
2022-09-02T00:48:43.511Z,14.50
2022-09-02T00:51:11.981Z,14.50
2022-09-02T00:53:41.330Z,14.40
2022-09-02T00:56:13.217Z,14.30
2022-09-02T00:58:43.061Z,14.30
2022-09-02T01:01:11.819Z,14.40
2022-09-02T01:03:41.259Z,14.30
2022-09-02T01:06:10.555Z,14.30
2022-09-02T01:08:39.282Z,14.30
2022-09-02T01:11:06.859Z,14.20
2022-09-02T01:13:40.391Z,14.10
2022-09-02T01:16:17.058Z,14.10
2022-09-02T01:18:49.732Z,14.10
2022-09-02T01:21:17.678Z,14.10
2022-09-02T01:23:45.914Z,14.00
2022-09-02T01:26:13.098Z,14.00
2022-09-02T01:28:40.180Z,14.00
2022-09-02T01:31:07.328Z,13.90
2022-09-02T01:33:34.580Z,13.90
2022-09-02T01:36:04.265Z,14.00
2022-09-02T01:38:32.236Z,14.10
2022-09-02T01:40:59.164Z,14.00
2022-09-02T01:43:28.392Z,14.00
2022-09-02T01:45:57.732Z,14.10
2022-09-02T01:48:25.010Z,14.10
2022-09-02T01:50:58.149Z,14.00
2022-09-02T01:53:25.256Z,14.10
2022-09-02T01:55:52.460Z,14.00
2022-09-02T01:58:20.082Z,13.90
2022-09-02T02:00:47.695Z,13.90
2022-09-02T02:03:15.157Z,13.90
2022-09-02T02:05:42.286Z,13.90
2022-09-02T02:08:09.503Z,13.80
2022-09-02T02:10:37.014Z,13.80
2022-09-02T02:13:04.007Z,13.90
2022-09-02T02:17:56.663Z,14.00
2022-09-02T02:20:23.581Z,14.10
2022-09-02T02:22:50.449Z,14.00
2022-09-02T02:25:18.833Z,13.90
2022-09-02T02:27:45.849Z,13.90
2022-09-02T02:30:15.433Z,13.90
2022-09-02T02:32:43.305Z,13.90
2022-09-02T02:35:11.424Z,13.90
2022-09-02T02:37:38.304Z,13.80
2022-09-02T02:40:07.007Z,13.80
2022-09-02T02:42:35.537Z,13.70
2022-09-02T02:45:03.353Z,13.60
2022-09-02T02:47:30.171Z,13.60
2022-09-02T02:49:57.077Z,13.60
2022-09-02T02:52:24.116Z,13.60
2022-09-02T02:54:51.037Z,13.60
2022-09-02T02:57:17.887Z,13.50
2022-09-02T02:59:44.641Z,13.40
2022-09-02T03:02:11.673Z,13.40
2022-09-02T03:04:39.979Z,13.50
2022-09-02T03:07:07.308Z,13.40
2022-09-02T03:09:34.399Z,13.40
2022-09-02T03:12:01.437Z,13.50
2022-09-02T03:14:28.385Z,13.50
2022-09-02T03:16:55.255Z,13.60
2022-09-02T03:19:22.146Z,13.50
2022-09-02T03:21:49.117Z,13.50
2022-09-02T03:24:15.938Z,13.40
2022-09-02T03:26:43.660Z,13.40
2022-09-02T03:29:10.595Z,13.30
2022-09-02T03:31:37.847Z,13.50
2022-09-02T03:34:05.207Z,13.50
2022-09-02T03:36:38.829Z,13.50
2022-09-02T03:39:09.694Z,13.60
2022-09-02T03:41:37.191Z,13.70
2022-09-02T03:44:05.454Z,13.70
2022-09-02T03:46:32.276Z,13.60
2022-09-02T03:48:59.147Z,13.60
2022-09-02T03:51:27.241Z,13.60
2022-09-02T03:53:54.551Z,13.60
2022-09-02T03:56:22.103Z,14.20
2022-09-02T03:58:51.519Z,15.40
2022-09-02T04:01:28.989Z,16.70
2022-09-02T04:04:02.153Z,17.70
2022-09-02T04:06:32.456Z,18.50
2022-09-02T04:08:59.829Z,19.20
2022-09-02T04:11:26.848Z,19.80
2022-09-02T04:13:54.023Z,20.30
2022-09-02T04:16:28.894Z,20.80
2022-09-02T04:18:58.375Z,21.20
2022-09-02T04:21:26.113Z,21.60
2022-09-02T04:23:53.071Z,22.00
2022-09-02T04:26:21.675Z,22.20
2022-09-02T04:28:50.002Z,22.50
2022-09-02T04:31:18.913Z,22.80
2022-09-02T04:33:46.334Z,23.00
2022-09-02T04:36:15.759Z,23.30
2022-09-02T04:38:43.250Z,23.50
2022-09-02T04:41:16.535Z,23.60
2022-09-02T04:43:43.990Z,24.00
2022-09-02T04:46:13.716Z,24.20
2022-09-02T04:48:44.125Z,24.20
2022-09-02T04:51:14.746Z,24.50
2022-09-02T04:53:42.425Z,24.80
2022-09-02T04:56:11.277Z,25.00
2022-09-02T04:58:38.909Z,25.50
2022-09-02T05:01:17.719Z,25.30
2022-09-02T05:03:45.623Z,25.30
2022-09-02T05:06:19.659Z,25.30
2022-09-02T05:08:48.071Z,24.90
2022-09-02T05:11:18.548Z,24.70
2022-09-02T05:13:51.628Z,24.60
2022-09-02T05:16:21.376Z,24.50
2022-09-02T05:18:49.354Z,24.70
2022-09-02T05:21:16.597Z,25.00
2022-09-02T05:23:43.744Z,25.10
2022-09-02T05:26:13.171Z,25.20
2022-09-02T05:28:41.725Z,25.40
2022-09-02T05:31:12.780Z,25.60
2022-09-02T05:33:42.152Z,25.50
2022-09-02T05:36:12.571Z,25.60
2022-09-02T05:38:43.571Z,25.60
2022-09-02T05:41:14.645Z,25.80
2022-09-02T05:43:44.703Z,25.70
2022-09-02T05:46:17.522Z,25.50
2022-09-02T05:49:04.995Z,25.40
2022-09-02T05:51:33.621Z,25.80
2022-09-02T05:54:01.551Z,25.50
2022-09-02T05:56:28.716Z,25.70
2022-09-02T05:58:57.344Z,25.80
2022-09-02T06:01:24.636Z,25.60
2022-09-02T06:03:52.346Z,25.50
2022-09-02T06:06:22.995Z,25.80
2022-09-02T06:08:51.154Z,25.90
2022-09-02T06:11:18.455Z,26.00
2022-09-02T06:13:45.284Z,26.20
2022-09-02T06:16:17.060Z,26.20
2022-09-02T06:18:46.877Z,26.10
2022-09-02T06:21:14.786Z,26.20
2022-09-02T06:23:42.233Z,26.40
2022-09-02T06:26:11.837Z,26.60
2022-09-02T06:28:38.693Z,26.50
2022-09-02T06:31:11.702Z,26.40
2022-09-02T06:33:38.858Z,26.20
2022-09-02T06:36:08.513Z,26.60
2022-09-02T06:38:46.031Z,26.60
2022-09-02T06:41:23.814Z,26.60
2022-09-02T06:43:51.232Z,26.60
2022-09-02T06:46:22.307Z,26.40
2022-09-02T06:48:50.189Z,26.70
2022-09-02T06:51:38.505Z,26.90
2022-09-02T06:54:07.364Z,27.10
2022-09-02T06:56:35.037Z,26.90
2022-09-02T06:59:02.401Z,26.90
2022-09-02T07:01:31.774Z,26.90
2022-09-02T07:04:17.763Z,26.60
2022-09-02T07:06:50.501Z,26.40
2022-09-02T07:09:22.331Z,26.90
2022-09-02T07:11:51.338Z,26.50
2022-09-02T07:14:20.217Z,26.20
2022-09-02T07:16:51.001Z,26.60
2022-09-02T07:19:20.759Z,26.50
2022-09-02T07:21:49.516Z,26.40
2022-09-02T07:24:17.903Z,26.50
2022-09-02T07:26:45.337Z,26.20
2022-09-02T07:29:12.897Z,26.30
2022-09-02T07:31:42.436Z,26.60
2022-09-02T07:34:10.082Z,26.30
2022-09-02T07:36:38.503Z,26.20
2022-09-02T07:39:08.488Z,26.20
2022-09-02T07:41:36.383Z,26.10
2022-09-02T07:44:04.463Z,26.40
2022-09-02T07:46:32.267Z,25.90
2022-09-02T07:49:00.507Z,25.50
2022-09-02T07:51:27.714Z,25.30
2022-09-02T07:53:58.121Z,25.10
2022-09-02T07:56:25.059Z,24.80
2022-09-02T07:58:52.441Z,24.50
2022-09-02T08:01:23.425Z,24.10
2022-09-02T08:03:50.936Z,24.20
2022-09-02T08:06:27.756Z,24.30
2022-09-02T08:09:06.955Z,24.40
2022-09-02T08:11:39.325Z,24.10
2022-09-02T08:14:09.712Z,24.20
2022-09-02T08:16:39.511Z,24.50
2022-09-02T08:19:08.370Z,24.70
2022-09-02T08:21:35.622Z,25.40
2022-09-02T08:24:02.937Z,25.40
2022-09-02T08:26:30.191Z,25.40
2022-09-02T08:28:57.124Z,24.70
2022-09-02T08:31:23.988Z,24.20
2022-09-02T08:33:50.885Z,23.40
2022-09-02T08:36:17.858Z,22.90
2022-09-02T08:38:45.041Z,22.00
2022-09-02T08:41:20.982Z,21.80
2022-09-02T08:43:50.152Z,21.60
2022-09-02T08:46:18.805Z,21.90
2022-09-02T08:48:53.200Z,22.00
2022-09-02T08:51:37.707Z,22.30
2022-09-02T08:54:20.638Z,22.80
2022-09-02T08:56:48.702Z,22.50
2022-09-02T08:59:22.594Z,21.90
2022-09-02T09:02:12.541Z,21.80
2022-09-02T09:05:01.031Z,21.60
2022-09-02T09:07:46.981Z,21.60
2022-09-02T09:10:18.355Z,21.60
2022-09-02T09:13:15.242Z,22.00
2022-09-02T09:16:10.090Z,22.60
2022-09-02T09:18:44.599Z,23.20
2022-09-02T09:21:12.182Z,23.30
2022-09-02T09:23:40.094Z,23.70
2022-09-02T09:26:08.344Z,24.10
2022-09-02T09:28:44.000Z,24.00
2022-09-02T09:31:15.014Z,23.80
2022-09-02T09:33:59.620Z,23.90
2022-09-02T09:36:54.403Z,23.80
2022-09-02T09:39:27.486Z,23.30
2022-09-02T09:42:02.945Z,23.40
2022-09-02T09:44:40.989Z,23.20
2022-09-02T09:47:13.628Z,23.10
2022-09-02T09:49:44.245Z,22.90
2022-09-02T09:52:11.066Z,23.00
2022-09-02T09:54:38.883Z,23.20
2022-09-02T09:57:21.623Z,23.20
2022-09-02T09:59:50.019Z,23.20
2022-09-02T10:02:26.086Z,22.90
2022-09-02T10:05:10.887Z,22.80
2022-09-02T10:07:41.102Z,23.20
2022-09-02T10:10:19.818Z,23.30
2022-09-02T10:12:48.515Z,23.30
2022-09-02T10:15:21.777Z,23.30
2022-09-02T10:17:57.095Z,23.00
2022-09-02T10:21:11.419Z,23.30
2022-09-02T10:23:47.520Z,23.70
2022-09-02T10:26:36.412Z,23.70
2022-09-02T10:29:35.441Z,23.90
2022-09-02T10:32:32.357Z,23.80
2022-09-02T10:35:21.140Z,23.40
2022-09-02T10:38:06.221Z,23.30
2022-09-02T10:41:15.424Z,23.70
2022-09-02T10:43:42.171Z,23.80
2022-09-02T10:46:12.465Z,23.90
2022-09-02T10:48:51.162Z,23.90
2022-09-02T10:51:27.096Z,23.80
2022-09-02T10:54:26.885Z,24.00
2022-09-02T10:57:03.216Z,24.30
2022-09-02T10:59:40.572Z,24.20
2022-09-02T11:02:27.598Z,24.00
2022-09-02T11:05:03.913Z,23.80
2022-09-02T11:07:41.105Z,23.80
2022-09-02T11:10:15.954Z,23.70
2022-09-02T11:12:52.463Z,23.70
2022-09-02T11:15:27.161Z,23.80
2022-09-02T11:18:04.033Z,23.50
2022-09-02T11:20:41.997Z,22.80
2022-09-02T11:23:18.413Z,22.80
2022-09-02T11:26:10.077Z,23.10
2022-09-02T11:28:43.447Z,23.00
2022-09-02T11:31:21.486Z,23.00
2022-09-02T11:36:38.688Z,23.20
2022-09-02T11:39:11.524Z,23.00
2022-09-02T11:41:41.208Z,23.10
2022-09-02T11:44:11.278Z,22.90
2022-09-02T11:47:04.653Z,22.90
2022-09-02T11:49:56.308Z,22.80
2022-09-02T11:53:07.986Z,22.20
2022-09-02T11:55:38.728Z,22.20
2022-09-02T11:58:05.610Z,22.50
2022-09-02T12:00:55.756Z,22.90
2022-09-02T12:03:52.138Z,22.80
2022-09-02T12:06:20.271Z,23.00
2022-09-02T12:08:48.847Z,22.30
2022-09-02T12:11:42.255Z,21.90
2022-09-02T12:14:13.659Z,21.70
2022-09-02T12:17:02.642Z,21.90
2022-09-02T12:19:42.648Z,22.10
2022-09-02T12:22:15.764Z,22.20
2022-09-02T12:24:55.383Z,22.50
2022-09-02T12:27:36.787Z,22.20
2022-09-02T12:30:10.101Z,22.50
2022-09-02T12:32:52.361Z,22.50
2022-09-02T12:35:40.846Z,22.10
2022-09-02T12:38:10.484Z,21.40
2022-09-02T12:41:12.360Z,21.10
2022-09-02T12:43:44.633Z,21.80
2022-09-02T12:46:17.617Z,21.90
2022-09-02T12:49:14.764Z,21.80
2022-09-02T12:52:11.171Z,21.80
2022-09-02T12:54:50.567Z,21.70
2022-09-02T12:57:19.219Z,21.70
2022-09-02T12:59:47.584Z,21.60
2022-09-02T13:02:33.190Z,21.30
2022-09-02T13:05:06.546Z,21.30
2022-09-02T13:08:10.912Z,21.10
2022-09-02T13:11:28.336Z,21.60
2022-09-02T13:14:15.011Z,22.00
2022-09-02T13:17:19.169Z,22.40
2022-09-02T13:20:39.286Z,22.70
2022-09-02T13:23:31.634Z,22.70
2022-09-02T13:26:49.231Z,22.70
2022-09-02T13:29:36.233Z,22.80
2022-09-02T13:32:10.284Z,22.90
2022-09-02T13:34:44.768Z,22.90
2022-09-02T13:37:33.649Z,23.00
2022-09-02T13:40:06.569Z,22.80
2022-09-02T13:42:33.627Z,22.80
2022-09-02T13:45:19.063Z,22.40
2022-09-02T13:47:49.445Z,22.50
2022-09-02T13:50:20.120Z,22.70
2022-09-02T13:55:43.620Z,22.60
2022-09-02T13:58:32.201Z,22.50
2022-09-02T14:01:19.281Z,22.60
2022-09-02T14:03:52.204Z,22.30
2022-09-02T14:06:23.551Z,22.40
2022-09-02T14:08:58.654Z,22.20
2022-09-02T14:11:27.579Z,22.30
2022-09-02T14:13:56.298Z,22.40
2022-09-02T14:16:37.142Z,22.30
2022-09-02T14:19:22.692Z,22.00
2022-09-02T14:21:57.937Z,21.60
2022-09-02T14:24:27.999Z,21.60
2022-09-02T14:26:59.805Z,21.50
2022-09-02T14:29:29.951Z,21.50
2022-09-02T14:32:13.589Z,21.40
2022-09-02T14:34:45.767Z,21.10
2022-09-02T14:37:28.649Z,20.90
2022-09-02T14:40:13.767Z,20.90
2022-09-02T14:42:48.709Z,20.80
2022-09-02T14:45:29.470Z,20.90
2022-09-02T14:47:59.172Z,20.80
2022-09-02T14:50:36.634Z,20.60
2022-09-02T14:53:09.265Z,20.50
2022-09-02T14:55:52.353Z,20.60
2022-09-02T14:58:20.904Z,20.50
2022-09-02T15:00:56.651Z,20.40
2022-09-02T15:03:24.185Z,20.40
2022-09-02T15:05:52.342Z,20.40
2022-09-02T15:08:19.609Z,20.40
2022-09-02T15:10:46.876Z,20.20
2022-09-02T15:13:35.461Z,20.00
2022-09-02T15:16:03.193Z,19.90
2022-09-02T15:18:30.278Z,19.80
2022-09-02T15:20:57.651Z,19.80
2022-09-02T15:23:24.991Z,19.80
2022-09-02T15:25:53.931Z,19.70
2022-09-02T15:28:21.201Z,19.70
2022-09-02T15:30:48.179Z,19.60
2022-09-02T15:33:16.806Z,19.60
2022-09-02T15:35:45.482Z,19.60
2022-09-02T15:38:12.947Z,19.60
2022-09-02T15:40:39.806Z,19.60
2022-09-02T15:43:06.675Z,19.50
2022-09-02T15:45:33.662Z,19.40
2022-09-02T15:48:00.540Z,19.40
2022-09-02T15:50:32.036Z,19.50
2022-09-02T15:52:58.877Z,19.40
2022-09-02T15:55:29.335Z,19.40
2022-09-02T15:57:56.713Z,19.40
2022-09-02T16:00:27.553Z,19.30
2022-09-02T16:02:56.920Z,19.20
2022-09-02T16:05:24.292Z,19.30
2022-09-02T16:07:54.760Z,19.30
2022-09-02T16:10:21.568Z,19.20
2022-09-02T16:12:48.808Z,19.20
2022-09-02T16:15:15.871Z,19.10
2022-09-02T16:17:42.738Z,19.10
2022-09-02T16:20:09.904Z,19.00
2022-09-02T16:22:37.419Z,19.00
2022-09-02T16:25:04.543Z,18.90
2022-09-02T16:27:49.799Z,18.90
2022-09-02T16:30:16.669Z,18.90
2022-09-02T16:32:44.504Z,18.90
2022-09-02T16:35:11.408Z,18.80
2022-09-02T16:37:38.191Z,18.70
2022-09-02T16:40:05.837Z,18.60
2022-09-02T16:42:37.380Z,18.60
2022-09-02T16:45:05.583Z,18.60
2022-09-02T16:47:32.420Z,18.50
2022-09-02T16:49:59.255Z,18.50
2022-09-02T16:52:26.044Z,18.50
2022-09-02T16:54:52.845Z,18.50
2022-09-02T16:57:19.759Z,18.50
2022-09-02T16:59:46.615Z,18.50
2022-09-02T17:02:13.454Z,18.40
2022-09-02T17:04:40.352Z,18.30
2022-09-02T17:07:08.019Z,18.30
2022-09-02T17:09:35.470Z,18.40
2022-09-02T17:12:02.501Z,18.30
2022-09-02T17:14:29.332Z,18.30
2022-09-02T17:16:56.456Z,18.20
2022-09-02T17:19:27.174Z,18.10
2022-09-02T17:21:56.985Z,18.10
2022-09-02T17:24:27.799Z,18.00
2022-09-02T17:26:55.992Z,18.00
2022-09-02T17:32:14.761Z,18.00
2022-09-02T17:34:41.636Z,17.90
2022-09-02T17:37:08.489Z,17.80
2022-09-02T17:39:35.472Z,17.70
2022-09-02T17:42:06.980Z,17.70
2022-09-02T17:44:38.666Z,17.70
2022-09-02T17:47:09.410Z,17.70
2022-09-02T17:49:38.507Z,17.70
2022-09-02T17:52:07.642Z,17.70
2022-09-02T17:54:38.491Z,17.70
2022-09-02T17:57:25.562Z,17.70
2022-09-02T18:00:01.449Z,17.60
2022-09-02T18:03:02.008Z,17.60
2022-09-02T18:05:42.957Z,17.60
2022-09-02T18:08:31.791Z,17.60
2022-09-02T18:11:05.389Z,17.60
2022-09-02T18:13:40.102Z,17.50
2022-09-02T18:16:23.087Z,17.50
2022-09-02T18:19:16.369Z,17.50
2022-09-02T18:22:03.323Z,17.60
2022-09-02T18:24:53.067Z,17.40
2022-09-02T18:27:26.567Z,17.30
2022-09-02T18:30:17.043Z,17.40
2022-09-02T18:33:20.246Z,17.40
2022-09-02T18:36:00.291Z,17.40
2022-09-02T18:38:40.025Z,17.30
2022-09-02T18:41:16.880Z,17.30
2022-09-02T18:43:59.651Z,17.30
2022-09-02T18:46:32.057Z,17.20
2022-09-02T18:49:03.796Z,17.20
2022-09-02T18:51:41.007Z,17.20
2022-09-02T18:55:01.747Z,17.20
2022-09-02T18:57:35.631Z,17.10
2022-09-02T19:00:07.184Z,17.00
2022-09-02T19:02:45.821Z,17.00
2022-09-02T19:05:17.042Z,16.80
2022-09-02T19:08:04.074Z,16.80
2022-09-02T19:10:31.335Z,16.90
2022-09-02T19:13:02.684Z,16.90
2022-09-02T19:15:29.485Z,16.90
2022-09-02T19:17:56.536Z,16.80
2022-09-02T19:20:23.943Z,16.70
2022-09-02T19:22:53.880Z,16.70
2022-09-02T19:25:25.436Z,16.80
2022-09-02T19:27:54.837Z,16.70
2022-09-02T19:30:22.939Z,16.70
2022-09-02T19:32:52.778Z,16.70
2022-09-02T19:35:22.997Z,16.80
2022-09-02T19:37:53.280Z,16.80
2022-09-02T19:40:31.048Z,16.60
2022-09-02T19:42:57.909Z,16.60
2022-09-02T19:45:29.088Z,16.40
2022-09-02T19:48:06.909Z,16.50
2022-09-02T19:50:37.266Z,16.50
2022-09-02T19:53:04.217Z,16.50
2022-09-02T19:55:33.669Z,16.50
2022-09-02T19:58:00.620Z,16.50
2022-09-02T20:00:27.985Z,16.60
2022-09-02T20:02:55.383Z,16.50
2022-09-02T20:05:24.463Z,16.50
2022-09-02T20:07:51.875Z,16.60
2022-09-02T20:10:20.286Z,16.50
2022-09-02T20:12:47.587Z,16.50
2022-09-02T20:15:15.002Z,16.50
2022-09-02T20:17:42.833Z,16.50
2022-09-02T20:20:17.869Z,16.50
2022-09-02T20:22:48.048Z,16.40
2022-09-02T20:25:15.329Z,16.40
2022-09-02T20:27:48.350Z,16.40
2022-09-02T20:30:17.548Z,16.40
2022-09-02T20:33:05.390Z,16.50
2022-09-02T20:35:44.511Z,16.30
2022-09-02T20:38:26.561Z,16.30
2022-09-02T20:41:20.398Z,16.20
2022-09-02T20:44:04.803Z,16.20
2022-09-02T20:47:02.667Z,16.20
2022-09-02T20:49:54.104Z,16.30
2022-09-02T20:52:50.776Z,16.40
2022-09-02T20:55:21.648Z,16.40
2022-09-02T20:57:48.407Z,16.40
2022-09-02T21:00:21.846Z,16.40
2022-09-02T21:02:51.263Z,16.30
2022-09-02T21:05:24.050Z,16.30
2022-09-02T21:08:05.550Z,16.20
2022-09-02T21:10:47.906Z,16.20
2022-09-02T21:13:35.518Z,16.10
2022-09-02T21:16:12.501Z,16.10
2022-09-02T21:18:46.370Z,16.10
2022-09-02T21:21:23.385Z,16.20
2022-09-02T21:23:56.523Z,16.20
2022-09-02T21:26:37.148Z,16.20
2022-09-02T21:29:26.156Z,16.20
2022-09-02T21:32:21.982Z,16.30
2022-09-02T21:35:00.883Z,16.20
2022-09-02T21:37:32.027Z,16.10
2022-09-02T21:40:06.928Z,16.00
2022-09-02T21:42:39.430Z,15.80
2022-09-02T21:45:17.769Z,15.70
2022-09-02T21:48:15.527Z,15.70
2022-09-02T21:51:01.682Z,15.50
2022-09-02T21:53:31.296Z,15.50
2022-09-02T21:56:21.286Z,15.50
2022-09-02T21:59:15.122Z,15.40
2022-09-02T22:01:55.806Z,15.40
2022-09-02T22:04:46.648Z,15.30
2022-09-02T22:07:19.105Z,15.20
2022-09-02T22:09:59.685Z,15.20
2022-09-02T22:12:26.734Z,15.10
2022-09-02T22:15:23.739Z,15.10
2022-09-02T22:17:55.484Z,15.10
2022-09-02T22:20:39.125Z,15.00
2022-09-02T22:23:17.587Z,15.00
2022-09-02T22:25:48.743Z,14.90
2022-09-02T22:28:21.227Z,14.90
2022-09-02T22:30:55.586Z,14.90
2022-09-02T22:33:27.853Z,14.90
2022-09-02T22:36:06.436Z,15.00
2022-09-02T22:38:41.361Z,14.90
2022-09-02T22:41:59.355Z,14.90
2022-09-02T22:48:26.153Z,14.90
2022-09-02T22:55:17.067Z,15.00
2022-09-02T23:35:24.243Z,14.80
2022-09-02T23:45:21.934Z,14.70
